Gu Achi, Arizona
Current Conditions -  °F | °C
As of 1:45 PM on Friday 19 Dec 2014 (Local Time) from KRYN Reporting Station
Clear Clear  
Wind Chill: 57°   Ceiling: Unl
Heat Index: 57°   Visibility: 10mi
Dew Point: 43°   Wind: 3mph
Humidity: 59%   Direction: 70°ENE
Pressure: 30.15"   Gusts: NA
Location:  32.0925°N, 112.129°W
Report Text: KRYN 192045Z 07003KT 10SM CLR 14/06 A3015
Loading
Personal Weather Stations






























Interactive Weather Map New forecast layout! Learn more

10-Day Weather Forecast

Advertisements
Track Severe Weather on mobile